createdAt,value
2022-10-05T00:00:55.706Z,9.60
2022-10-05T00:03:37.407Z,10.30
2022-10-05T00:06:05.944Z,9.20
2022-10-05T00:08:34.762Z,9.20
2022-10-05T00:11:02.802Z,9.80
2022-10-05T00:13:31.284Z,9.50
2022-10-05T00:16:05.021Z,9.50
2022-10-05T00:18:32.757Z,9.30
2022-10-05T00:21:00.516Z,9.50
2022-10-05T00:23:31.962Z,9.50
2022-10-05T00:26:06.814Z,9.70
2022-10-05T00:28:34.893Z,8.80
2022-10-05T00:31:02.873Z,10.10
2022-10-05T00:33:30.802Z,10.30
2022-10-05T00:35:58.578Z,10.90
2022-10-05T00:38:28.760Z,10.80
2022-10-05T00:41:09.968Z,10.40
2022-10-05T00:43:57.098Z,10.50
2022-10-05T00:48:53.456Z,10.30
2022-10-05T00:51:26.417Z,10.50
2022-10-05T00:54:17.479Z,11.00
2022-10-05T00:56:49.853Z,11.40
2022-10-05T00:59:29.534Z,10.30
2022-10-05T01:02:09.818Z,10.50
2022-10-05T01:04:49.790Z,9.60
2022-10-05T01:07:23.649Z,10.60
2022-10-05T01:09:58.923Z,10.70
2022-10-05T01:12:40.183Z,10.90
2022-10-05T01:15:11.619Z,11.10
2022-10-05T01:17:41.568Z,10.60
2022-10-05T01:20:20.263Z,11.30
2022-10-05T01:22:56.234Z,11.30
2022-10-05T01:25:43.649Z,11.40
2022-10-05T01:30:48.169Z,10.30
2022-10-05T01:33:36.319Z,11.20
2022-10-05T01:36:12.679Z,11.10
2022-10-05T01:38:43.362Z,10.80
2022-10-05T01:41:20.290Z,11.00
2022-10-05T01:44:00.055Z,10.90
2022-10-05T01:46:39.785Z,10.40
2022-10-05T01:49:16.970Z,10.90
2022-10-05T01:51:50.797Z,11.20
2022-10-05T01:54:30.616Z,11.30
2022-10-05T01:57:17.843Z,11.00
2022-10-05T01:59:48.780Z,11.10
2022-10-05T02:02:17.821Z,10.90
2022-10-05T02:05:02.015Z,11.10
2022-10-05T02:07:34.395Z,11.00
2022-10-05T02:10:04.885Z,11.30
2022-10-05T02:12:38.517Z,11.50
2022-10-05T02:15:13.976Z,11.00
2022-10-05T02:17:45.734Z,11.50
2022-10-05T02:20:17.274Z,11.50
2022-10-05T02:22:47.164Z,11.80
2022-10-05T02:25:17.362Z,11.10
2022-10-05T02:27:50.103Z,10.60
2022-10-05T02:30:19.289Z,11.70
2022-10-05T02:32:54.774Z,11.10
2022-10-05T02:35:22.884Z,10.60
2022-10-05T02:38:08.765Z,11.00
2022-10-05T02:41:00.860Z,10.40
2022-10-05T02:43:32.268Z,10.70
2022-10-05T02:46:03.109Z,10.10
2022-10-05T02:48:34.174Z,10.20
2022-10-05T02:51:14.722Z,10.60
2022-10-05T02:53:50.664Z,10.60
2022-10-05T02:56:37.080Z,10.80
2022-10-05T02:59:07.440Z,11.10
2022-10-05T03:01:39.959Z,10.60
2022-10-05T03:04:13.767Z,10.90
2022-10-05T03:06:55.543Z,11.00
2022-10-05T03:09:26.199Z,11.50
2022-10-05T03:11:53.785Z,13.40
2022-10-05T03:14:40.930Z,13.20
2022-10-05T03:17:22.570Z,13.20
2022-10-05T03:20:06.300Z,12.80
2022-10-05T03:22:39.899Z,12.20
2022-10-05T03:25:26.705Z,12.40
2022-10-05T03:28:05.636Z,10.10
2022-10-05T03:30:38.662Z,10.20
2022-10-05T03:33:17.157Z,10.70
2022-10-05T03:35:49.246Z,10.30
2022-10-05T03:38:23.012Z,10.10
2022-10-05T03:40:56.244Z,9.90
2022-10-05T03:43:47.403Z,9.50
2022-10-05T03:46:30.563Z,10.30
2022-10-05T03:49:01.448Z,9.70
2022-10-05T03:51:36.092Z,9.70
2022-10-05T03:54:12.049Z,9.30
2022-10-05T03:56:50.786Z,9.50
2022-10-05T03:59:21.552Z,9.20
2022-10-05T04:01:55.481Z,9.10
2022-10-05T04:04:26.238Z,8.50
2022-10-05T04:06:55.340Z,9.20
2022-10-05T04:09:26.792Z,8.30
2022-10-05T04:12:12.882Z,9.10
2022-10-05T04:14:52.403Z,8.70
2022-10-05T04:17:39.133Z,8.20
2022-10-05T04:20:09.663Z,8.60
2022-10-05T04:22:39.369Z,8.70
2022-10-05T04:25:12.953Z,8.20
2022-10-05T04:27:44.727Z,8.40
2022-10-05T04:30:14.855Z,8.20
2022-10-05T04:32:43.993Z,8.50
2022-10-05T04:35:11.857Z,8.80
2022-10-05T04:37:47.052Z,8.70
2022-10-05T04:40:32.906Z,8.30
2022-10-05T04:43:13.504Z,8.30
2022-10-05T04:45:56.619Z,7.10
2022-10-05T04:48:30.360Z,7.80
2022-10-05T04:51:16.829Z,7.80
2022-10-05T04:53:54.242Z,7.20
2022-10-05T04:56:27.993Z,8.40
2022-10-05T04:59:02.036Z,8.40
2022-10-05T05:01:32.763Z,7.90
2022-10-05T05:04:19.376Z,8.00
2022-10-05T05:07:06.384Z,9.50
2022-10-05T05:09:51.452Z,9.50
2022-10-05T05:12:22.506Z,9.40
2022-10-05T05:14:56.244Z,10.60
2022-10-05T05:17:33.073Z,10.10
2022-10-05T05:20:06.793Z,9.90
2022-10-05T05:22:37.241Z,10.10
2022-10-05T05:25:17.569Z,9.10
2022-10-05T05:27:45.929Z,8.40
2022-10-05T05:30:17.440Z,8.40
2022-10-05T05:32:54.733Z,8.30
2022-10-05T05:35:42.002Z,8.60
2022-10-05T05:38:22.259Z,8.10
2022-10-05T05:41:09.875Z,10.10
2022-10-05T05:43:56.395Z,44.00
2022-10-05T05:46:38.883Z,28.80
2022-10-05T05:49:16.286Z,33.20
2022-10-05T05:51:48.451Z,36.40
2022-10-05T05:54:16.405Z,38.00
2022-10-05T05:56:48.169Z,38.80
2022-10-05T05:59:20.657Z,30.70
2022-10-05T06:02:10.456Z,23.50
2022-10-05T06:04:38.808Z,20.30
2022-10-05T06:07:07.590Z,17.10
2022-10-05T06:09:38.252Z,14.80
2022-10-05T06:12:06.098Z,13.60
2022-10-05T06:14:43.071Z,12.50
2022-10-05T06:17:10.694Z,12.00
2022-10-05T06:19:40.433Z,11.80
2022-10-05T06:22:14.276Z,11.00
2022-10-05T06:24:46.437Z,11.30
2022-10-05T06:27:27.807Z,10.60
2022-10-05T06:30:04.882Z,9.20
2022-10-05T06:32:51.691Z,8.70
2022-10-05T06:35:26.982Z,8.60
2022-10-05T06:38:01.061Z,8.20
2022-10-05T06:40:41.198Z,8.10
2022-10-05T06:43:22.582Z,7.50
2022-10-05T06:45:53.755Z,7.50
2022-10-05T06:48:21.690Z,7.80
2022-10-05T06:51:12.688Z,7.20
2022-10-05T06:53:45.590Z,7.30
2022-10-05T06:56:17.961Z,7.30
2022-10-05T06:58:51.775Z,7.00
2022-10-05T07:01:33.297Z,7.20
2022-10-05T07:04:03.980Z,7.00
2022-10-05T07:06:49.936Z,7.20
2022-10-05T07:09:29.506Z,6.90
2022-10-05T07:12:05.464Z,6.70
2022-10-05T07:14:54.219Z,6.90
2022-10-05T07:17:22.390Z,7.00
2022-10-05T07:20:08.916Z,7.00
2022-10-05T07:22:45.603Z,7.20
2022-10-05T07:25:19.381Z,6.80
2022-10-05T07:27:59.980Z,6.60
2022-10-05T07:30:28.922Z,6.80
2022-10-05T07:33:00.487Z,6.60
2022-10-05T07:36:16.168Z,6.30
2022-10-05T07:39:02.369Z,6.60
2022-10-05T07:41:40.399Z,6.20
2022-10-05T07:44:14.510Z,6.30
2022-10-05T07:46:54.838Z,6.10
2022-10-05T07:49:28.950Z,6.20
2022-10-05T07:52:01.717Z,6.00
2022-10-05T07:54:30.797Z,6.00
2022-10-05T07:57:19.587Z,5.90
2022-10-05T07:59:58.404Z,6.30
2022-10-05T08:02:42.774Z,6.00
2022-10-05T08:05:12.169Z,5.90
2022-10-05T08:07:40.448Z,5.30
2022-10-05T08:10:29.394Z,5.10
2022-10-05T08:12:57.773Z,5.00
2022-10-05T08:15:43.283Z,4.90
2022-10-05T08:18:38.898Z,4.70
2022-10-05T08:21:12.108Z,4.30
2022-10-05T08:23:47.058Z,4.50
2022-10-05T08:26:22.742Z,4.10
2022-10-05T08:28:57.401Z,4.40
2022-10-05T08:31:27.423Z,4.00
2022-10-05T08:33:55.559Z,4.00
2022-10-05T08:36:42.160Z,3.60
2022-10-05T08:39:15.044Z,3.60
2022-10-05T08:41:42.688Z,3.80
2022-10-05T08:44:13.443Z,3.30
2022-10-05T08:47:05.616Z,3.40
2022-10-05T08:49:39.380Z,3.50
2022-10-05T08:52:06.980Z,3.50
2022-10-05T08:54:38.068Z,2.90
2022-10-05T08:57:25.359Z,3.30
2022-10-05T09:02:29.084Z,3.10
2022-10-05T09:05:09.481Z,3.30
2022-10-05T09:07:37.243Z,3.40
2022-10-05T09:10:13.750Z,3.20
2022-10-05T09:13:09.390Z,3.10
2022-10-05T09:15:40.295Z,3.10
2022-10-05T09:18:14.072Z,3.10
2022-10-05T09:20:41.648Z,2.90
2022-10-05T09:23:15.332Z,3.20
2022-10-05T09:26:03.861Z,3.40
2022-10-05T09:28:38.038Z,3.10
2022-10-05T09:31:34.001Z,2.90
2022-10-05T09:34:01.791Z,3.10
2022-10-05T09:36:59.621Z,3.30
2022-10-05T09:39:35.098Z,2.90
2022-10-05T09:42:18.119Z,2.70
2022-10-05T09:44:51.960Z,3.20
2022-10-05T09:47:38.319Z,2.80
2022-10-05T09:50:12.033Z,3.10
2022-10-05T09:52:40.121Z,2.70
2022-10-05T09:55:27.017Z,2.70
2022-10-05T09:58:14.548Z,2.60
2022-10-05T10:00:55.580Z,2.30
2022-10-05T10:03:50.792Z,2.30
2022-10-05T10:06:33.837Z,2.60
2022-10-05T10:09:07.647Z,2.40
2022-10-05T10:11:35.248Z,2.80
2022-10-05T10:14:03.380Z,2.40
2022-10-05T10:16:37.082Z,2.50
2022-10-05T10:19:04.750Z,2.20
2022-10-05T10:21:33.429Z,2.30
2022-10-05T10:24:04.215Z,2.40
2022-10-05T10:26:50.976Z,2.70
2022-10-05T10:29:37.781Z,2.30
2022-10-05T10:32:23.597Z,2.50
2022-10-05T10:34:53.959Z,2.60
2022-10-05T10:37:30.852Z,2.40
2022-10-05T10:39:58.542Z,2.30
2022-10-05T10:42:32.439Z,2.60
2022-10-05T10:45:06.552Z,2.30
2022-10-05T10:47:40.780Z,2.30
2022-10-05T10:50:24.405Z,2.50
2022-10-05T10:53:10.084Z,2.60
2022-10-05T10:55:42.633Z,2.20
2022-10-05T11:01:18.417Z,2.30
2022-10-05T11:06:28.639Z,2.20
2022-10-05T11:09:10.096Z,2.50
2022-10-05T11:11:41.259Z,2.40
2022-10-05T11:14:15.243Z,2.60
2022-10-05T11:16:49.284Z,2.30
2022-10-05T11:19:17.201Z,2.30
2022-10-05T11:21:45.043Z,2.20
2022-10-05T11:24:28.159Z,2.30
2022-10-05T11:27:03.549Z,2.20
2022-10-05T11:29:31.218Z,2.40
2022-10-05T11:31:58.864Z,2.00
2022-10-05T11:34:29.416Z,2.30
2022-10-05T11:37:11.252Z,2.20
2022-10-05T11:39:41.809Z,6.10
2022-10-05T11:42:28.533Z,3.00
2022-10-05T11:44:57.614Z,2.40
2022-10-05T11:47:31.022Z,2.50
2022-10-05T11:50:06.776Z,2.90
2022-10-05T11:52:34.641Z,2.60
2022-10-05T11:55:21.040Z,2.40
2022-10-05T11:57:51.979Z,2.20
2022-10-05T12:00:19.741Z,2.90
2022-10-05T12:03:07.249Z,2.10
2022-10-05T12:05:43.068Z,1.50
2022-10-05T12:08:26.040Z,2.00
2022-10-05T12:11:00.051Z,2.40
2022-10-05T12:13:43.088Z,1.70
2022-10-05T12:16:10.856Z,1.30
2022-10-05T12:18:45.697Z,1.80
2022-10-05T12:21:28.298Z,1.70
2022-10-05T12:24:02.392Z,1.60
2022-10-05T12:26:36.904Z,1.90
2022-10-05T12:29:23.414Z,1.60
2022-10-05T12:32:11.600Z,1.80
2022-10-05T12:34:42.250Z,1.70
2022-10-05T12:37:13.164Z,1.70
2022-10-05T12:39:40.771Z,1.60
2022-10-05T12:42:27.436Z,1.80
2022-10-05T12:47:36.459Z,1.60
2022-10-05T12:50:20.687Z,1.50
2022-10-05T12:53:07.277Z,1.40
2022-10-05T12:55:46.523Z,1.60
2022-10-05T12:58:17.406Z,1.70
2022-10-05T13:01:06.901Z,1.80
2022-10-05T13:03:38.330Z,1.70
2022-10-05T13:06:27.840Z,1.90
2022-10-05T13:09:06.614Z,2.30
2022-10-05T13:11:35.296Z,1.80
2022-10-05T13:14:03.332Z,1.70
2022-10-05T13:16:40.840Z,1.40
2022-10-05T13:19:08.686Z,1.90
2022-10-05T13:21:40.884Z,1.70
2022-10-05T13:24:15.287Z,1.70
2022-10-05T13:26:46.272Z,1.60
2022-10-05T13:29:43.916Z,1.40
2022-10-05T13:32:17.868Z,1.60
2022-10-05T13:35:10.602Z,1.80
2022-10-05T13:37:43.368Z,1.80
2022-10-05T13:40:29.926Z,1.70
2022-10-05T13:43:11.187Z,1.50
2022-10-05T13:45:46.502Z,1.50
2022-10-05T13:48:15.024Z,1.60
2022-10-05T13:50:50.165Z,1.50
2022-10-05T13:53:28.784Z,1.70
2022-10-05T13:56:00.915Z,1.30
2022-10-05T13:58:38.137Z,1.30
2022-10-05T14:01:16.141Z,1.50
2022-10-05T14:04:04.174Z,1.60
2022-10-05T14:06:33.362Z,1.80
2022-10-05T14:09:01.341Z,1.60
2022-10-05T14:11:33.712Z,1.70
2022-10-05T14:14:10.805Z,1.50
2022-10-05T14:16:44.895Z,1.30
2022-10-05T14:19:20.350Z,1.70
2022-10-05T14:21:58.784Z,1.50
2022-10-05T14:24:46.868Z,1.80
2022-10-05T14:27:24.384Z,1.50
2022-10-05T14:29:58.365Z,1.50
2022-10-05T14:32:27.608Z,1.80
2022-10-05T14:34:56.396Z,1.60
2022-10-05T14:37:26.216Z,1.80
2022-10-05T14:39:57.914Z,1.50
2022-10-05T14:42:28.563Z,1.60
2022-10-05T14:45:16.437Z,1.80
2022-10-05T14:47:53.264Z,1.70
2022-10-05T14:50:26.104Z,1.40
2022-10-05T14:53:03.649Z,1.40
2022-10-05T14:55:46.492Z,1.40
2022-10-05T14:58:32.985Z,1.30
2022-10-05T15:01:13.763Z,1.40
2022-10-05T15:03:41.740Z,1.70
2022-10-05T15:06:16.112Z,1.40
2022-10-05T15:09:17.005Z,1.80
2022-10-05T15:11:53.664Z,1.70
2022-10-05T15:14:32.219Z,1.90
2022-10-05T15:17:05.385Z,1.50
2022-10-05T15:19:42.665Z,1.90
2022-10-05T15:22:20.273Z,1.60
2022-10-05T15:24:48.527Z,1.20
2022-10-05T15:27:32.538Z,1.30
2022-10-05T15:30:04.663Z,1.20
2022-10-05T15:32:42.296Z,1.20
2022-10-05T15:35:16.009Z,1.60
2022-10-05T15:37:46.735Z,1.30
2022-10-05T15:40:18.334Z,1.50
2022-10-05T15:42:46.143Z,1.40
2022-10-05T15:45:23.578Z,1.30
2022-10-05T15:48:03.488Z,1.50
2022-10-05T15:50:35.390Z,1.50
2022-10-05T15:53:16.734Z,1.40
2022-10-05T15:56:03.856Z,1.20
2022-10-05T15:58:44.921Z,1.20
2022-10-05T16:01:13.393Z,1.60
2022-10-05T16:03:41.104Z,1.50
2022-10-05T16:06:46.856Z,1.70
2022-10-05T16:09:25.468Z,2.00
2022-10-05T16:12:03.599Z,2.20
2022-10-05T16:14:42.096Z,2.10
2022-10-05T16:17:29.148Z,1.90
2022-10-05T16:20:12.645Z,1.90
2022-10-05T16:22:47.063Z,1.90
2022-10-05T16:25:14.834Z,2.00
2022-10-05T16:27:48.226Z,2.30
2022-10-05T16:30:23.978Z,2.40
2022-10-05T16:32:54.814Z,2.00
2022-10-05T16:35:25.051Z,2.30
2022-10-05T16:38:02.733Z,2.00
2022-10-05T16:40:34.563Z,2.30
2022-10-05T16:43:23.249Z,2.40
2022-10-05T16:46:10.462Z,2.60
2022-10-05T16:48:59.113Z,2.30
2022-10-05T16:51:45.947Z,2.30
2022-10-05T16:54:26.388Z,2.20
2022-10-05T16:56:57.424Z,2.50
2022-10-05T16:59:40.652Z,2.30
2022-10-05T17:02:27.273Z,2.50
2022-10-05T17:04:58.150Z,2.60
2022-10-05T17:07:28.927Z,2.60
2022-10-05T17:10:15.242Z,2.90
2022-10-05T17:12:46.265Z,2.90
2022-10-05T17:15:29.926Z,3.40
2022-10-05T17:18:07.590Z,3.40
2022-10-05T17:20:43.257Z,3.60
2022-10-05T17:23:18.416Z,3.60
2022-10-05T17:25:53.009Z,7.30
2022-10-05T17:28:42.022Z,14.10
2022-10-05T17:31:16.287Z,11.40
2022-10-05T17:34:05.284Z,6.30
2022-10-05T17:36:50.943Z,4.40
2022-10-05T17:39:22.792Z,3.40
2022-10-05T17:41:51.280Z,3.20
2022-10-05T17:44:21.001Z,3.00
2022-10-05T17:46:50.746Z,3.30
2022-10-05T17:49:23.676Z,3.00
2022-10-05T17:52:10.278Z,3.10
2022-10-05T17:55:02.929Z,3.20
2022-10-05T17:57:31.926Z,3.40
2022-10-05T18:00:02.063Z,3.00
2022-10-05T18:02:36.929Z,3.00
2022-10-05T18:05:05.042Z,3.40
2022-10-05T18:07:34.709Z,3.30
2022-10-05T18:10:15.628Z,3.10
2022-10-05T18:12:46.865Z,3.30
2022-10-05T18:15:15.145Z,3.30
2022-10-05T18:17:55.266Z,4.00
2022-10-05T18:20:29.105Z,4.30
2022-10-05T18:23:05.536Z,3.70
2022-10-05T18:25:39.374Z,3.80
2022-10-05T18:28:09.081Z,3.90
2022-10-05T18:30:44.992Z,3.60
2022-10-05T18:33:43.656Z,3.50
2022-10-05T18:36:27.682Z,3.90
2022-10-05T18:38:55.966Z,3.90
2022-10-05T18:41:24.943Z,3.60
2022-10-05T18:43:55.576Z,3.60
2022-10-05T18:46:35.715Z,3.80
2022-10-05T18:49:04.312Z,3.80
2022-10-05T18:51:38.545Z,3.80
2022-10-05T18:54:26.173Z,3.80
2022-10-05T18:56:54.632Z,4.20
2022-10-05T18:59:43.363Z,4.30
2022-10-05T19:02:16.152Z,3.80
2022-10-05T19:04:53.865Z,4.10
2022-10-05T19:07:28.806Z,4.20
2022-10-05T19:10:12.698Z,4.20
2022-10-05T19:12:56.907Z,4.40
2022-10-05T19:15:48.010Z,4.30
2022-10-05T19:18:19.964Z,4.00
2022-10-05T19:21:06.979Z,4.40
2022-10-05T19:26:32.714Z,3.70
2022-10-05T19:31:36.174Z,4.80
2022-10-05T19:34:10.150Z,4.50
2022-10-05T19:36:46.600Z,4.90
2022-10-05T19:39:14.781Z,5.30
2022-10-05T19:42:01.378Z,6.10
2022-10-05T19:44:35.635Z,5.30
2022-10-05T19:47:17.511Z,8.10
2022-10-05T19:49:56.835Z,6.50
2022-10-05T19:52:29.527Z,9.70
2022-10-05T19:55:24.611Z,7.70
2022-10-05T19:57:54.317Z,6.80
2022-10-05T20:00:22.902Z,6.70
2022-10-05T20:02:51.654Z,5.80
2022-10-05T20:05:20.575Z,5.30
2022-10-05T20:07:48.440Z,5.40
2022-10-05T20:10:25.983Z,5.10
2022-10-05T20:12:57.706Z,5.20
2022-10-05T20:15:47.388Z,5.40
2022-10-05T20:19:12.961Z,5.40
2022-10-05T20:21:44.107Z,5.70
2022-10-05T20:24:15.596Z,5.20
2022-10-05T20:27:03.927Z,5.10
2022-10-05T20:29:36.917Z,5.60
2022-10-05T20:32:11.141Z,5.60
2022-10-05T20:34:41.656Z,6.10
2022-10-05T20:37:20.461Z,5.30
2022-10-05T20:39:50.962Z,5.70
2022-10-05T20:42:19.580Z,5.50
2022-10-05T20:44:55.822Z,6.00
2022-10-05T20:47:26.000Z,6.10
2022-10-05T20:49:56.132Z,5.90
2022-10-05T20:52:25.812Z,6.10
2022-10-05T20:54:56.949Z,5.80
2022-10-05T20:57:25.337Z,6.10
2022-10-05T20:59:53.462Z,6.00
2022-10-05T21:02:21.261Z,6.00
2022-10-05T21:04:49.533Z,6.30
2022-10-05T21:07:18.252Z,5.80
2022-10-05T21:09:46.911Z,5.40
2022-10-05T21:12:16.614Z,5.90
2022-10-05T21:14:45.503Z,6.00
2022-10-05T21:17:13.880Z,6.20
2022-10-05T21:19:42.057Z,5.60
2022-10-05T21:22:10.542Z,6.20
2022-10-05T21:24:39.269Z,5.90
2022-10-05T21:27:08.367Z,6.00
2022-10-05T21:29:39.560Z,6.00
2022-10-05T21:46:43.898Z,6.00
2022-10-05T21:49:14.175Z,5.90
2022-10-05T21:51:46.363Z,6.50
2022-10-05T21:54:16.384Z,6.00
2022-10-05T21:56:46.007Z,5.90
2022-10-05T21:59:15.236Z,6.00
2022-10-05T22:01:43.270Z,5.90
2022-10-05T22:04:12.253Z,5.80
2022-10-05T22:06:40.869Z,6.00
2022-10-05T22:09:09.117Z,6.10
2022-10-05T22:11:37.928Z,5.80
2022-10-05T22:14:06.795Z,5.30
2022-10-05T22:16:36.826Z,5.50
2022-10-05T22:19:06.319Z,5.50
2022-10-05T22:21:38.286Z,6.10
2022-10-05T22:24:06.246Z,5.60
2022-10-05T22:26:35.089Z,6.10
2022-10-05T22:29:03.623Z,6.30
2022-10-05T22:31:32.694Z,5.50
2022-10-05T22:34:00.578Z,5.90
2022-10-05T22:36:28.647Z,6.00
2022-10-05T22:38:56.826Z,6.10
2022-10-05T22:41:24.696Z,5.70
2022-10-05T22:43:52.961Z,5.60
2022-10-05T22:46:20.949Z,5.40
2022-10-05T22:48:48.674Z,5.90
2022-10-05T22:51:16.973Z,5.90
2022-10-05T22:53:44.733Z,5.70
2022-10-05T22:56:13.622Z,6.00
2022-10-05T22:58:42.315Z,5.80
2022-10-05T23:01:12.271Z,5.90
2022-10-05T23:03:40.715Z,6.00
2022-10-05T23:06:10.434Z,5.90
2022-10-05T23:08:38.999Z,5.60
2022-10-05T23:11:08.090Z,6.00
2022-10-05T23:13:36.162Z,6.30
2022-10-05T23:16:12.089Z,5.40
2022-10-05T23:18:40.699Z,6.40
2022-10-05T23:21:08.929Z,5.90
2022-10-05T23:23:37.865Z,6.50
2022-10-05T23:26:06.625Z,5.60
2022-10-05T23:28:34.683Z,5.50
2022-10-05T23:31:04.841Z,5.80
2022-10-05T23:33:33.411Z,5.90
2022-10-05T23:36:02.090Z,5.80
2022-10-05T23:38:30.235Z,5.70
2022-10-05T23:40:59.918Z,5.60
2022-10-05T23:43:28.246Z,5.50
2022-10-05T23:45:58.330Z,5.60
2022-10-05T23:48:27.003Z,5.40
2022-10-05T23:50:55.862Z,5.50
2022-10-05T23:53:24.239Z,5.70
2022-10-05T23:55:53.764Z,5.30
2022-10-05T23:58:22.352Z,5.60
